sensor_id;sensor_type;location;lat;lon;timestamp;P1;durP1;ratioP1;P2;durP2;ratioP2
69991;SDS011;57332;51.320;-0.580;2023-04-25T00:00:51;11.57;;;2.75;;
69991;SDS011;57332;51.320;-0.580;2023-04-25T00:03:19;9.23;;;2.50;;
69991;SDS011;57332;51.320;-0.580;2023-04-25T00:05:48;13.82;;;2.50;;
69991;SDS011;57332;51.320;-0.580;2023-04-25T00:08:15;8.82;;;2.63;;
69991;SDS011;57332;51.320;-0.580;2023-04-25T00:10:42;9.20;;;2.20;;
69991;SDS011;57332;51.320;-0.580;2023-04-25T00:13:09;9.38;;;2.30;;
69991;SDS011;57332;51.320;-0.580;2023-04-25T00:15:38;11.18;;;2.58;;
69991;SDS011;57332;51.320;-0.580;2023-04-25T00:18:05;7.95;;;2.35;;
69991;SDS011;57332;51.320;-0.580;2023-04-25T00:20:33;13.50;;;2.13;;
69991;SDS011;57332;51.320;-0.580;2023-04-25T00:22:59;9.25;;;1.90;;
69991;SDS011;57332;51.320;-0.580;2023-04-25T00:25:26;6.65;;;2.40;;
69991;SDS011;57332;51.320;-0.580;2023-04-25T00:27:53;9.40;;;2.40;;
69991;SDS011;57332;51.320;-0.580;2023-04-25T00:30:20;9.65;;;2.20;;
69991;SDS011;57332;51.320;-0.580;2023-04-25T00:32:47;8.35;;;2.30;;
69991;SDS011;57332;51.320;-0.580;2023-04-25T00:35:15;6.55;;;2.10;;
69991;SDS011;57332;51.320;-0.580;2023-04-25T00:37:42;5.18;;;2.00;;
69991;SDS011;57332;51.320;-0.580;2023-04-25T00:40:09;7.82;;;1.92;;
69991;SDS011;57332;51.320;-0.580;2023-04-25T00:42:37;8.10;;;1.77;;
69991;SDS011;57332;51.320;-0.580;2023-04-25T00:45:04;5.38;;;1.83;;
69991;SDS011;57332;51.320;-0.580;2023-04-25T00:47:32;9.40;;;1.80;;
69991;SDS011;57332;51.320;-0.580;2023-04-25T00:49:59;6.22;;;2.05;;
69991;SDS011;57332;51.320;-0.580;2023-04-25T00:52:26;7.43;;;1.77;;
69991;SDS011;57332;51.320;-0.580;2023-04-25T00:54:53;12.30;;;2.47;;
69991;SDS011;57332;51.320;-0.580;2023-04-25T00:57:20;5.57;;;1.88;;
69991;SDS011;57332;51.320;-0.580;2023-04-25T00:59:46;5.57;;;1.77;;
69991;SDS011;57332;51.320;-0.580;2023-04-25T01:02:14;5.50;;;2.08;;
69991;SDS011;57332;51.320;-0.580;2023-04-25T01:04:41;9.35;;;2.30;;
69991;SDS011;57332;51.320;-0.580;2023-04-25T01:07:11;8.73;;;1.83;;
69991;SDS011;57332;51.320;-0.580;2023-04-25T01:09:37;6.53;;;1.67;;
69991;SDS011;57332;51.320;-0.580;2023-04-25T01:12:04;7.10;;;2.00;;
69991;SDS011;57332;51.320;-0.580;2023-04-25T01:14:31;9.45;;;2.42;;
69991;SDS011;57332;51.320;-0.580;2023-04-25T01:16:58;8.05;;;2.22;;
69991;SDS011;57332;51.320;-0.580;2023-04-25T01:19:25;5.95;;;1.83;;
69991;SDS011;57332;51.320;-0.580;2023-04-25T01:21:52;6.35;;;1.98;;
69991;SDS011;57332;51.320;-0.580;2023-04-25T01:24:19;4.22;;;1.65;;
69991;SDS011;57332;51.320;-0.580;2023-04-25T01:26:46;6.28;;;1.92;;
69991;SDS011;57332;51.320;-0.580;2023-04-25T01:29:17;8.02;;;1.83;;
69991;SDS011;57332;51.320;-0.580;2023-04-25T01:31:44;5.68;;;1.85;;
69991;SDS011;57332;51.320;-0.580;2023-04-25T01:34:12;5.88;;;1.58;;
69991;SDS011;57332;51.320;-0.580;2023-04-25T01:36:39;5.43;;;2.10;;
69991;SDS011;57332;51.320;-0.580;2023-04-25T01:39:07;10.40;;;2.30;;
69991;SDS011;57332;51.320;-0.580;2023-04-25T01:41:34;8.82;;;2.40;;
69991;SDS011;57332;51.320;-0.580;2023-04-25T01:44:01;7.45;;;2.05;;
69991;SDS011;57332;51.320;-0.580;2023-04-25T01:46:28;6.50;;;2.40;;
69991;SDS011;57332;51.320;-0.580;2023-04-25T01:48:55;9.77;;;1.88;;
69991;SDS011;57332;51.320;-0.580;2023-04-25T01:51:22;6.03;;;1.80;;
69991;SDS011;57332;51.320;-0.580;2023-04-25T01:53:49;7.35;;;1.88;;
69991;SDS011;57332;51.320;-0.580;2023-04-25T01:56:17;12.35;;;2.20;;
69991;SDS011;57332;51.320;-0.580;2023-04-25T01:58:44;9.65;;;1.90;;
69991;SDS011;57332;51.320;-0.580;2023-04-25T02:01:11;6.85;;;1.77;;
69991;SDS011;57332;51.320;-0.580;2023-04-25T02:03:38;9.20;;;2.28;;
69991;SDS011;57332;51.320;-0.580;2023-04-25T02:06:05;8.10;;;2.10;;
69991;SDS011;57332;51.320;-0.580;2023-04-25T02:08:32;7.90;;;1.73;;
69991;SDS011;57332;51.320;-0.580;2023-04-25T02:11:00;6.60;;;1.73;;
69991;SDS011;57332;51.320;-0.580;2023-04-25T02:13:27;8.02;;;2.42;;
69991;SDS011;57332;51.320;-0.580;2023-04-25T02:15:53;10.55;;;2.33;;
69991;SDS011;57332;51.320;-0.580;2023-04-25T02:18:20;8.55;;;2.03;;
69991;SDS011;57332;51.320;-0.580;2023-04-25T02:20:47;8.82;;;1.92;;
69991;SDS011;57332;51.320;-0.580;2023-04-25T02:23:14;6.60;;;2.30;;
69991;SDS011;57332;51.320;-0.580;2023-04-25T02:25:45;8.13;;;1.90;;
69991;SDS011;57332;51.320;-0.580;2023-04-25T02:28:12;7.65;;;2.30;;
69991;SDS011;57332;51.320;-0.580;2023-04-25T02:30:39;7.68;;;2.35;;
69991;SDS011;57332;51.320;-0.580;2023-04-25T02:33:06;8.18;;;1.85;;
69991;SDS011;57332;51.320;-0.580;2023-04-25T02:35:33;5.88;;;2.00;;
69991;SDS011;57332;51.320;-0.580;2023-04-25T02:37:59;10.30;;;1.60;;
69991;SDS011;57332;51.320;-0.580;2023-04-25T02:40:26;9.85;;;2.50;;
69991;SDS011;57332;51.320;-0.580;2023-04-25T02:42:53;4.47;;;1.80;;
69991;SDS011;57332;51.320;-0.580;2023-04-25T02:45:20;4.65;;;1.70;;
69991;SDS011;57332;51.320;-0.580;2023-04-25T02:47:47;6.10;;;1.75;;
69991;SDS011;57332;51.320;-0.580;2023-04-25T02:50:14;6.85;;;1.77;;
69991;SDS011;57332;51.320;-0.580;2023-04-25T02:52:41;8.30;;;2.45;;
69991;SDS011;57332;51.320;-0.580;2023-04-25T02:55:08;6.95;;;1.77;;
69991;SDS011;57332;51.320;-0.580;2023-04-25T02:57:35;7.50;;;1.98;;
69991;SDS011;57332;51.320;-0.580;2023-04-25T03:00:02;6.10;;;2.00;;
69991;SDS011;57332;51.320;-0.580;2023-04-25T03:02:31;7.57;;;2.05;;
69991;SDS011;57332;51.320;-0.580;2023-04-25T03:04:58;5.45;;;1.58;;
69991;SDS011;57332;51.320;-0.580;2023-04-25T03:07:25;5.68;;;1.90;;
69991;SDS011;57332;51.320;-0.580;2023-04-25T03:09:51;6.53;;;1.70;;
69991;SDS011;57332;51.320;-0.580;2023-04-25T03:12:18;6.93;;;1.80;;
69991;SDS011;57332;51.320;-0.580;2023-04-25T03:14:45;6.80;;;1.92;;
69991;SDS011;57332;51.320;-0.580;2023-04-25T03:17:12;9.77;;;2.22;;
69991;SDS011;57332;51.320;-0.580;2023-04-25T03:19:39;5.72;;;2.10;;
69991;SDS011;57332;51.320;-0.580;2023-04-25T03:22:06;6.80;;;1.48;;
69991;SDS011;57332;51.320;-0.580;2023-04-25T03:24:33;5.53;;;1.70;;
69991;SDS011;57332;51.320;-0.580;2023-04-25T03:27:00;7.47;;;1.38;;
69991;SDS011;57332;51.320;-0.580;2023-04-25T03:29:27;4.45;;;1.63;;
69991;SDS011;57332;51.320;-0.580;2023-04-25T03:31:55;5.93;;;1.33;;
69991;SDS011;57332;51.320;-0.580;2023-04-25T03:34:22;3.63;;;1.60;;
69991;SDS011;57332;51.320;-0.580;2023-04-25T03:36:49;8.80;;;1.55;;
69991;SDS011;57332;51.320;-0.580;2023-04-25T03:39:16;9.55;;;2.10;;
69991;SDS011;57332;51.320;-0.580;2023-04-25T03:41:43;8.27;;;1.90;;
69991;SDS011;57332;51.320;-0.580;2023-04-25T03:44:09;7.40;;;1.92;;
69991;SDS011;57332;51.320;-0.580;2023-04-25T03:46:36;7.03;;;1.60;;
69991;SDS011;57332;51.320;-0.580;2023-04-25T03:49:03;6.70;;;1.52;;
69991;SDS011;57332;51.320;-0.580;2023-04-25T03:51:30;5.40;;;1.52;;
69991;SDS011;57332;51.320;-0.580;2023-04-25T03:53:57;4.90;;;1.60;;
69991;SDS011;57332;51.320;-0.580;2023-04-25T03:56:24;5.43;;;1.63;;
69991;SDS011;57332;51.320;-0.580;2023-04-25T03:58:51;3.47;;;1.80;;
69991;SDS011;57332;51.320;-0.580;2023-04-25T04:01:18;3.53;;;1.45;;
69991;SDS011;57332;51.320;-0.580;2023-04-25T04:03:44;5.00;;;1.80;;
69991;SDS011;57332;51.320;-0.580;2023-04-25T04:06:12;4.70;;;1.73;;
69991;SDS011;57332;51.320;-0.580;2023-04-25T04:08:39;6.25;;;1.50;;
69991;SDS011;57332;51.320;-0.580;2023-04-25T04:11:06;4.18;;;1.60;;
69991;SDS011;57332;51.320;-0.580;2023-04-25T04:13:33;5.90;;;1.67;;
69991;SDS011;57332;51.320;-0.580;2023-04-25T04:16:00;6.35;;;1.80;;
69991;SDS011;57332;51.320;-0.580;2023-04-25T04:18:27;6.05;;;1.40;;
69991;SDS011;57332;51.320;-0.580;2023-04-25T04:20:54;5.70;;;1.85;;
69991;SDS011;57332;51.320;-0.580;2023-04-25T04:23:21;4.45;;;1.58;;
69991;SDS011;57332;51.320;-0.580;2023-04-25T04:25:49;5.07;;;1.70;;
69991;SDS011;57332;51.320;-0.580;2023-04-25T04:28:16;5.97;;;1.80;;
69991;SDS011;57332;51.320;-0.580;2023-04-25T04:30:43;4.68;;;1.60;;
69991;SDS011;57332;51.320;-0.580;2023-04-25T04:33:12;5.60;;;1.90;;
69991;SDS011;57332;51.320;-0.580;2023-04-25T04:35:39;6.15;;;2.00;;
69991;SDS011;57332;51.320;-0.580;2023-04-25T04:38:06;4.93;;;2.22;;
69991;SDS011;57332;51.320;-0.580;2023-04-25T04:40:33;5.38;;;2.00;;
69991;SDS011;57332;51.320;-0.580;2023-04-25T04:43:00;6.95;;;2.08;;
69991;SDS011;57332;51.320;-0.580;2023-04-25T04:45:27;5.75;;;1.65;;
69991;SDS011;57332;51.320;-0.580;2023-04-25T04:47:54;7.38;;;2.20;;
69991;SDS011;57332;51.320;-0.580;2023-04-25T04:50:22;9.20;;;2.50;;
69991;SDS011;57332;51.320;-0.580;2023-04-25T04:52:49;10.77;;;2.75;;
69991;SDS011;57332;51.320;-0.580;2023-04-25T04:55:16;6.43;;;2.00;;
69991;SDS011;57332;51.320;-0.580;2023-04-25T04:57:43;7.63;;;2.45;;
69991;SDS011;57332;51.320;-0.580;2023-04-25T05:00:10;9.57;;;2.20;;
69991;SDS011;57332;51.320;-0.580;2023-04-25T05:02:38;6.65;;;2.13;;
69991;SDS011;57332;51.320;-0.580;2023-04-25T05:05:05;5.43;;;2.17;;
69991;SDS011;57332;51.320;-0.580;2023-04-25T05:07:32;7.13;;;2.03;;
69991;SDS011;57332;51.320;-0.580;2023-04-25T05:09:59;6.80;;;2.20;;
69991;SDS011;57332;51.320;-0.580;2023-04-25T05:12:26;9.63;;;2.58;;
69991;SDS011;57332;51.320;-0.580;2023-04-25T05:14:53;7.82;;;2.30;;
69991;SDS011;57332;51.320;-0.580;2023-04-25T05:17:19;10.82;;;2.45;;
69991;SDS011;57332;51.320;-0.580;2023-04-25T05:19:46;5.90;;;2.60;;
69991;SDS011;57332;51.320;-0.580;2023-04-25T05:22:13;11.27;;;3.30;;
69991;SDS011;57332;51.320;-0.580;2023-04-25T05:24:40;9.63;;;3.17;;
69991;SDS011;57332;51.320;-0.580;2023-04-25T05:27:07;8.50;;;3.10;;
69991;SDS011;57332;51.320;-0.580;2023-04-25T05:29:33;11.70;;;2.67;;
69991;SDS011;57332;51.320;-0.580;2023-04-25T05:32:01;9.18;;;2.63;;
69991;SDS011;57332;51.320;-0.580;2023-04-25T05:34:28;6.93;;;2.20;;
69991;SDS011;57332;51.320;-0.580;2023-04-25T05:36:55;7.25;;;2.70;;
69991;SDS011;57332;51.320;-0.580;2023-04-25T05:39:22;11.30;;;2.50;;
69991;SDS011;57332;51.320;-0.580;2023-04-25T05:41:49;9.55;;;2.58;;
69991;SDS011;57332;51.320;-0.580;2023-04-25T05:44:16;7.93;;;2.60;;
69991;SDS011;57332;51.320;-0.580;2023-04-25T05:46:43;7.05;;;2.70;;
69991;SDS011;57332;51.320;-0.580;2023-04-25T05:49:10;9.30;;;2.55;;
69991;SDS011;57332;51.320;-0.580;2023-04-25T05:51:37;11.27;;;2.40;;
69991;SDS011;57332;51.320;-0.580;2023-04-25T05:54:03;6.90;;;2.05;;
69991;SDS011;57332;51.320;-0.580;2023-04-25T05:56:30;7.18;;;1.67;;
69991;SDS011;57332;51.320;-0.580;2023-04-25T05:58:57;7.50;;;2.45;;
69991;SDS011;57332;51.320;-0.580;2023-04-25T06:01:24;6.13;;;2.03;;
69991;SDS011;57332;51.320;-0.580;2023-04-25T06:03:51;8.75;;;2.15;;
69991;SDS011;57332;51.320;-0.580;2023-04-25T06:06:20;7.97;;;2.00;;
69991;SDS011;57332;51.320;-0.580;2023-04-25T06:08:46;6.55;;;2.05;;
69991;SDS011;57332;51.320;-0.580;2023-04-25T06:11:13;7.72;;;2.25;;
69991;SDS011;57332;51.320;-0.580;2023-04-25T06:13:40;7.50;;;2.22;;
69991;SDS011;57332;51.320;-0.580;2023-04-25T06:16:07;9.13;;;2.58;;
69991;SDS011;57332;51.320;-0.580;2023-04-25T06:18:34;7.97;;;2.47;;
69991;SDS011;57332;51.320;-0.580;2023-04-25T06:21:01;9.98;;;2.40;;
69991;SDS011;57332;51.320;-0.580;2023-04-25T06:23:28;10.63;;;2.22;;
69991;SDS011;57332;51.320;-0.580;2023-04-25T06:25:55;6.18;;;1.80;;
69991;SDS011;57332;51.320;-0.580;2023-04-25T06:28:21;7.28;;;2.38;;
69991;SDS011;57332;51.320;-0.580;2023-04-25T06:30:50;9.02;;;2.30;;
69991;SDS011;57332;51.320;-0.580;2023-04-25T06:33:17;8.05;;;2.17;;
69991;SDS011;57332;51.320;-0.580;2023-04-25T06:35:43;7.22;;;2.05;;
69991;SDS011;57332;51.320;-0.580;2023-04-25T06:38:10;7.43;;;2.17;;
69991;SDS011;57332;51.320;-0.580;2023-04-25T06:40:37;8.50;;;1.85;;
69991;SDS011;57332;51.320;-0.580;2023-04-25T06:43:04;4.63;;;1.73;;
69991;SDS011;57332;51.320;-0.580;2023-04-25T06:45:31;3.45;;;1.88;;
69991;SDS011;57332;51.320;-0.580;2023-04-25T06:47:58;8.63;;;1.95;;
69991;SDS011;57332;51.320;-0.580;2023-04-25T06:50:25;8.90;;;2.70;;
69991;SDS011;57332;51.320;-0.580;2023-04-25T06:52:52;6.15;;;1.67;;
69991;SDS011;57332;51.320;-0.580;2023-04-25T06:55:19;8.60;;;2.10;;
69991;SDS011;57332;51.320;-0.580;2023-04-25T06:57:46;5.38;;;2.38;;
69991;SDS011;57332;51.320;-0.580;2023-04-25T07:00:13;6.18;;;2.00;;
69991;SDS011;57332;51.320;-0.580;2023-04-25T07:02:40;6.60;;;2.00;;
69991;SDS011;57332;51.320;-0.580;2023-04-25T07:05:09;7.75;;;1.85;;
69991;SDS011;57332;51.320;-0.580;2023-04-25T07:07:36;4.38;;;1.40;;
69991;SDS011;57332;51.320;-0.580;2023-04-25T07:10:02;5.72;;;1.50;;
69991;SDS011;57332;51.320;-0.580;2023-04-25T07:12:29;2.85;;;1.52;;
69991;SDS011;57332;51.320;-0.580;2023-04-25T07:14:56;10.40;;;2.08;;
69991;SDS011;57332;51.320;-0.580;2023-04-25T07:17:23;6.15;;;1.40;;
69991;SDS011;57332;51.320;-0.580;2023-04-25T07:19:50;7.03;;;1.45;;
69991;SDS011;57332;51.320;-0.580;2023-04-25T07:22:17;3.88;;;1.50;;
69991;SDS011;57332;51.320;-0.580;2023-04-25T07:24:44;6.20;;;1.52;;
69991;SDS011;57332;51.320;-0.580;2023-04-25T07:27:15;6.63;;;2.17;;
69991;SDS011;57332;51.320;-0.580;2023-04-25T07:29:42;4.95;;;1.63;;
69991;SDS011;57332;51.320;-0.580;2023-04-25T07:32:09;3.60;;;1.60;;
69991;SDS011;57332;51.320;-0.580;2023-04-25T07:34:38;4.03;;;1.25;;
69991;SDS011;57332;51.320;-0.580;2023-04-25T07:37:05;6.90;;;1.90;;
69991;SDS011;57332;51.320;-0.580;2023-04-25T07:39:32;6.03;;;1.33;;
69991;SDS011;57332;51.320;-0.580;2023-04-25T07:41:59;4.10;;;1.25;;
69991;SDS011;57332;51.320;-0.580;2023-04-25T07:44:27;4.15;;;1.13;;
69991;SDS011;57332;51.320;-0.580;2023-04-25T07:46:53;7.43;;;1.52;;
69991;SDS011;57332;51.320;-0.580;2023-04-25T07:49:20;5.15;;;1.80;;
69991;SDS011;57332;51.320;-0.580;2023-04-25T07:51:47;9.70;;;1.70;;
69991;SDS011;57332;51.320;-0.580;2023-04-25T07:54:14;5.80;;;1.40;;
69991;SDS011;57332;51.320;-0.580;2023-04-25T07:56:42;4.68;;;1.27;;
69991;SDS011;57332;51.320;-0.580;2023-04-25T07:59:19;7.32;;;1.50;;
69991;SDS011;57332;51.320;-0.580;2023-04-25T08:01:46;4.78;;;1.45;;
69991;SDS011;57332;51.320;-0.580;2023-04-25T08:04:13;4.20;;;1.30;;
69991;SDS011;57332;51.320;-0.580;2023-04-25T08:06:40;5.68;;;1.60;;
69991;SDS011;57332;51.320;-0.580;2023-04-25T08:09:07;9.68;;;1.63;;
69991;SDS011;57332;51.320;-0.580;2023-04-25T08:11:36;5.50;;;1.40;;
69991;SDS011;57332;51.320;-0.580;2023-04-25T08:14:03;3.67;;;1.45;;
69991;SDS011;57332;51.320;-0.580;2023-04-25T08:16:29;3.13;;;1.10;;
69991;SDS011;57332;51.320;-0.580;2023-04-25T08:18:57;3.97;;;1.38;;
69991;SDS011;57332;51.320;-0.580;2023-04-25T08:21:23;6.85;;;1.48;;
69991;SDS011;57332;51.320;-0.580;2023-04-25T08:23:50;4.20;;;1.02;;
69991;SDS011;57332;51.320;-0.580;2023-04-25T08:26:17;3.17;;;1.42;;
69991;SDS011;57332;51.320;-0.580;2023-04-25T08:28:44;5.15;;;1.35;;
69991;SDS011;57332;51.320;-0.580;2023-04-25T08:31:14;5.90;;;1.45;;
69991;SDS011;57332;51.320;-0.580;2023-04-25T08:33:41;4.50;;;1.17;;
69991;SDS011;57332;51.320;-0.580;2023-04-25T08:36:08;3.55;;;1.65;;
69991;SDS011;57332;51.320;-0.580;2023-04-25T08:38:35;3.78;;;1.10;;
69991;SDS011;57332;51.320;-0.580;2023-04-25T08:41:03;4.45;;;1.42;;
69991;SDS011;57332;51.320;-0.580;2023-04-25T08:43:30;4.53;;;1.27;;
69991;SDS011;57332;51.320;-0.580;2023-04-25T08:46:00;4.68;;;1.80;;
69991;SDS011;57332;51.320;-0.580;2023-04-25T08:48:27;5.50;;;1.60;;
69991;SDS011;57332;51.320;-0.580;2023-04-25T08:50:55;5.03;;;1.58;;
69991;SDS011;57332;51.320;-0.580;2023-04-25T08:53:26;3.78;;;1.20;;
69991;SDS011;57332;51.320;-0.580;2023-04-25T08:55:54;6.70;;;1.88;;
69991;SDS011;57332;51.320;-0.580;2023-04-25T08:58:22;4.57;;;1.73;;
69991;SDS011;57332;51.320;-0.580;2023-04-25T09:00:50;4.65;;;1.50;;
69991;SDS011;57332;51.320;-0.580;2023-04-25T09:03:17;3.80;;;1.50;;
69991;SDS011;57332;51.320;-0.580;2023-04-25T09:05:44;5.50;;;1.70;;
69991;SDS011;57332;51.320;-0.580;2023-04-25T09:08:11;5.00;;;1.40;;
69991;SDS011;57332;51.320;-0.580;2023-04-25T09:10:39;3.72;;;1.35;;
69991;SDS011;57332;51.320;-0.580;2023-04-25T09:13:07;2.70;;;1.00;;
69991;SDS011;57332;51.320;-0.580;2023-04-25T09:15:48;6.30;;;1.65;;
69991;SDS011;57332;51.320;-0.580;2023-04-25T09:18:50;3.20;;;1.30;;
69991;SDS011;57332;51.320;-0.580;2023-04-25T09:21:14;5.15;;;2.58;;
69991;SDS011;57332;51.320;-0.580;2023-04-25T09:23:45;3.13;;;1.80;;
69991;SDS011;57332;51.320;-0.580;2023-04-25T09:26:31;4.53;;;1.25;;
69991;SDS011;57332;51.320;-0.580;2023-04-25T09:29:16;5.70;;;1.48;;
69991;SDS011;57332;51.320;-0.580;2023-04-25T09:31:43;1.90;;;0.95;;
69991;SDS011;57332;51.320;-0.580;2023-04-25T09:34:10;4.10;;;1.48;;
69991;SDS011;57332;51.320;-0.580;2023-04-25T09:39:12;5.32;;;1.17;;
69991;SDS011;57332;51.320;-0.580;2023-04-25T09:41:41;2.67;;;1.20;;
69991;SDS011;57332;51.320;-0.580;2023-04-25T09:44:09;6.30;;;1.35;;
69991;SDS011;57332;51.320;-0.580;2023-04-25T09:46:39;4.35;;;1.15;;
69991;SDS011;57332;51.320;-0.580;2023-04-25T09:49:06;4.75;;;1.27;;
69991;SDS011;57332;51.320;-0.580;2023-04-25T09:51:33;6.97;;;1.50;;
69991;SDS011;57332;51.320;-0.580;2023-04-25T09:54:00;4.57;;;1.05;;
69991;SDS011;57332;51.320;-0.580;2023-04-25T09:56:27;4.00;;;1.10;;
69991;SDS011;57332;51.320;-0.580;2023-04-25T09:58:58;3.85;;;1.00;;
69991;SDS011;57332;51.320;-0.580;2023-04-25T10:01:25;2.92;;;0.93;;
69991;SDS011;57332;51.320;-0.580;2023-04-25T10:03:52;4.15;;;1.08;;
69991;SDS011;57332;51.320;-0.580;2023-04-25T10:06:23;5.25;;;1.25;;
69991;SDS011;57332;51.320;-0.580;2023-04-25T10:08:52;6.40;;;1.20;;
69991;SDS011;57332;51.320;-0.580;2023-04-25T10:11:20;2.65;;;1.20;;
69991;SDS011;57332;51.320;-0.580;2023-04-25T10:13:47;4.55;;;1.20;;
69991;SDS011;57332;51.320;-0.580;2023-04-25T10:16:15;2.42;;;0.90;;
69991;SDS011;57332;51.320;-0.580;2023-04-25T10:18:42;2.53;;;1.00;;
69991;SDS011;57332;51.320;-0.580;2023-04-25T10:21:09;2.13;;;0.82;;
69991;SDS011;57332;51.320;-0.580;2023-04-25T10:23:37;3.75;;;1.10;;
69991;SDS011;57332;51.320;-0.580;2023-04-25T10:26:04;4.25;;;1.50;;
69991;SDS011;57332;51.320;-0.580;2023-04-25T10:28:49;2.65;;;0.93;;
69991;SDS011;57332;51.320;-0.580;2023-04-25T10:31:18;3.63;;;1.08;;
69991;SDS011;57332;51.320;-0.580;2023-04-25T10:33:45;4.63;;;1.23;;
69991;SDS011;57332;51.320;-0.580;2023-04-25T10:36:17;3.13;;;1.02;;
69991;SDS011;57332;51.320;-0.580;2023-04-25T10:38:45;4.40;;;1.25;;
69991;SDS011;57332;51.320;-0.580;2023-04-25T10:41:12;5.63;;;1.30;;
69991;SDS011;57332;51.320;-0.580;2023-04-25T10:43:46;4.03;;;1.20;;
69991;SDS011;57332;51.320;-0.580;2023-04-25T10:46:23;2.88;;;0.95;;
69991;SDS011;57332;51.320;-0.580;2023-04-25T10:48:57;2.33;;;1.10;;
69991;SDS011;57332;51.320;-0.580;2023-04-25T10:51:24;3.67;;;1.05;;
69991;SDS011;57332;51.320;-0.580;2023-04-25T10:56:22;2.72;;;0.90;;
69991;SDS011;57332;51.320;-0.580;2023-04-25T10:58:49;3.25;;;0.90;;
69991;SDS011;57332;51.320;-0.580;2023-04-25T11:01:20;2.60;;;1.00;;
69991;SDS011;57332;51.320;-0.580;2023-04-25T11:03:47;3.42;;;1.02;;
69991;SDS011;57332;51.320;-0.580;2023-04-25T11:06:22;2.50;;;0.90;;
69991;SDS011;57332;51.320;-0.580;2023-04-25T11:08:50;2.63;;;1.00;;
69991;SDS011;57332;51.320;-0.580;2023-04-25T11:11:17;2.65;;;1.30;;
69991;SDS011;57332;51.320;-0.580;2023-04-25T11:13:48;3.03;;;1.20;;
69991;SDS011;57332;51.320;-0.580;2023-04-25T11:16:16;4.60;;;1.23;;
69991;SDS011;57332;51.320;-0.580;2023-04-25T11:18:53;2.45;;;0.95;;
69991;SDS011;57332;51.320;-0.580;2023-04-25T11:21:20;4.65;;;1.83;;
69991;SDS011;57332;51.320;-0.580;2023-04-25T11:23:47;4.35;;;1.00;;
69991;SDS011;57332;51.320;-0.580;2023-04-25T11:26:14;4.13;;;1.00;;
69991;SDS011;57332;51.320;-0.580;2023-04-25T11:28:44;4.07;;;1.35;;
69991;SDS011;57332;51.320;-0.580;2023-04-25T11:31:11;3.75;;;1.15;;
69991;SDS011;57332;51.320;-0.580;2023-04-25T11:33:38;3.10;;;1.00;;
69991;SDS011;57332;51.320;-0.580;2023-04-25T11:36:07;3.95;;;1.10;;
69991;SDS011;57332;51.320;-0.580;2023-04-25T11:38:34;2.75;;;1.02;;
69991;SDS011;57332;51.320;-0.580;2023-04-25T11:41:01;4.63;;;1.40;;
69991;SDS011;57332;51.320;-0.580;2023-04-25T11:43:28;2.08;;;1.17;;
69991;SDS011;57332;51.320;-0.580;2023-04-25T11:45:55;3.78;;;1.13;;
69991;SDS011;57332;51.320;-0.580;2023-04-25T11:48:22;2.35;;;1.10;;
69991;SDS011;57332;51.320;-0.580;2023-04-25T11:50:53;6.18;;;1.38;;
69991;SDS011;57332;51.320;-0.580;2023-04-25T11:53:20;2.55;;;1.02;;
69991;SDS011;57332;51.320;-0.580;2023-04-25T11:55:47;3.08;;;1.10;;
69991;SDS011;57332;51.320;-0.580;2023-04-25T11:58:14;2.42;;;0.90;;
69991;SDS011;57332;51.320;-0.580;2023-04-25T12:00:41;5.10;;;1.50;;
69991;SDS011;57332;51.320;-0.580;2023-04-25T12:03:17;3.85;;;1.25;;
69991;SDS011;57332;51.320;-0.580;2023-04-25T12:05:45;4.00;;;1.33;;
69991;SDS011;57332;51.320;-0.580;2023-04-25T12:08:13;3.53;;;1.10;;
69991;SDS011;57332;51.320;-0.580;2023-04-25T12:10:41;5.72;;;1.88;;
69991;SDS011;57332;51.320;-0.580;2023-04-25T12:13:22;2.97;;;1.42;;
69991;SDS011;57332;51.320;-0.580;2023-04-25T12:15:50;2.67;;;1.42;;
69991;SDS011;57332;51.320;-0.580;2023-04-25T12:18:22;5.10;;;1.33;;
69991;SDS011;57332;51.320;-0.580;2023-04-25T12:20:49;4.07;;;1.20;;
69991;SDS011;57332;51.320;-0.580;2023-04-25T12:23:16;4.72;;;1.48;;
69991;SDS011;57332;51.320;-0.580;2023-04-25T12:25:44;5.80;;;1.50;;
69991;SDS011;57332;51.320;-0.580;2023-04-25T12:28:21;3.03;;;1.17;;
69991;SDS011;57332;51.320;-0.580;2023-04-25T12:30:55;4.38;;;1.55;;
69991;SDS011;57332;51.320;-0.580;2023-04-25T12:33:23;3.72;;;1.30;;
69991;SDS011;57332;51.320;-0.580;2023-04-25T12:35:49;4.68;;;1.30;;
69991;SDS011;57332;51.320;-0.580;2023-04-25T12:38:20;2.92;;;1.40;;
69991;SDS011;57332;51.320;-0.580;2023-04-25T12:40:47;3.95;;;1.30;;
69991;SDS011;57332;51.320;-0.580;2023-04-25T12:43:14;2.60;;;1.17;;
69991;SDS011;57332;51.320;-0.580;2023-04-25T12:45:41;3.80;;;1.30;;
69991;SDS011;57332;51.320;-0.580;2023-04-25T12:48:08;2.83;;;1.10;;
69991;SDS011;57332;51.320;-0.580;2023-04-25T12:50:35;2.90;;;1.33;;
69991;SDS011;57332;51.320;-0.580;2023-04-25T12:53:02;3.65;;;1.50;;
69991;SDS011;57332;51.320;-0.580;2023-04-25T12:55:28;3.47;;;1.38;;
69991;SDS011;57332;51.320;-0.580;2023-04-25T12:57:56;5.00;;;1.58;;
69991;SDS011;57332;51.320;-0.580;2023-04-25T13:00:23;4.85;;;1.63;;
69991;SDS011;57332;51.320;-0.580;2023-04-25T13:02:50;3.15;;;1.42;;
69991;SDS011;57332;51.320;-0.580;2023-04-25T13:05:17;2.70;;;1.50;;
69991;SDS011;57332;51.320;-0.580;2023-04-25T13:07:44;3.80;;;1.55;;
69991;SDS011;57332;51.320;-0.580;2023-04-25T13:10:10;3.92;;;1.92;;
69991;SDS011;57332;51.320;-0.580;2023-04-25T13:12:37;5.25;;;1.38;;
69991;SDS011;57332;51.320;-0.580;2023-04-25T13:15:04;6.63;;;2.30;;
69991;SDS011;57332;51.320;-0.580;2023-04-25T13:17:31;5.70;;;1.35;;
69991;SDS011;57332;51.320;-0.580;2023-04-25T13:19:58;2.70;;;1.40;;
69991;SDS011;57332;51.320;-0.580;2023-04-25T13:22:25;2.85;;;1.50;;
69991;SDS011;57332;51.320;-0.580;2023-04-25T13:24:52;4.35;;;1.63;;
69991;SDS011;57332;51.320;-0.580;2023-04-25T13:27:19;3.42;;;1.60;;
69991;SDS011;57332;51.320;-0.580;2023-04-25T13:29:46;3.88;;;1.45;;
69991;SDS011;57332;51.320;-0.580;2023-04-25T13:32:12;3.95;;;1.67;;
69991;SDS011;57332;51.320;-0.580;2023-04-25T13:34:39;3.55;;;1.55;;
69991;SDS011;57332;51.320;-0.580;2023-04-25T13:37:06;4.20;;;1.50;;
69991;SDS011;57332;51.320;-0.580;2023-04-25T13:39:33;5.43;;;1.52;;
69991;SDS011;57332;51.320;-0.580;2023-04-25T13:42:00;4.05;;;1.73;;
69991;SDS011;57332;51.320;-0.580;2023-04-25T13:44:27;4.55;;;1.70;;
69991;SDS011;57332;51.320;-0.580;2023-04-25T13:46:54;4.03;;;1.67;;
69991;SDS011;57332;51.320;-0.580;2023-04-25T13:49:21;4.05;;;1.60;;
69991;SDS011;57332;51.320;-0.580;2023-04-25T13:51:49;4.35;;;1.55;;
69991;SDS011;57332;51.320;-0.580;2023-04-25T13:54:16;5.28;;;1.70;;
69991;SDS011;57332;51.320;-0.580;2023-04-25T13:56:43;4.20;;;1.80;;
69991;SDS011;57332;51.320;-0.580;2023-04-25T13:59:10;4.28;;;1.35;;
69991;SDS011;57332;51.320;-0.580;2023-04-25T14:01:37;3.92;;;1.70;;
69991;SDS011;57332;51.320;-0.580;2023-04-25T14:04:04;3.30;;;1.48;;
69991;SDS011;57332;51.320;-0.580;2023-04-25T14:06:31;3.03;;;1.55;;
69991;SDS011;57332;51.320;-0.580;2023-04-25T14:08:58;4.32;;;1.40;;
69991;SDS011;57332;51.320;-0.580;2023-04-25T14:11:27;4.55;;;1.63;;
69991;SDS011;57332;51.320;-0.580;2023-04-25T14:13:54;3.92;;;1.70;;
69991;SDS011;57332;51.320;-0.580;2023-04-25T14:16:21;4.43;;;1.40;;
69991;SDS011;57332;51.320;-0.580;2023-04-25T14:18:49;4.10;;;1.58;;
69991;SDS011;57332;51.320;-0.580;2023-04-25T14:21:16;4.28;;;1.52;;
69991;SDS011;57332;51.320;-0.580;2023-04-25T14:23:43;4.18;;;1.55;;
69991;SDS011;57332;51.320;-0.580;2023-04-25T14:26:10;4.07;;;1.52;;
69991;SDS011;57332;51.320;-0.580;2023-04-25T14:28:39;4.65;;;1.58;;
69991;SDS011;57332;51.320;-0.580;2023-04-25T14:31:06;4.20;;;1.60;;
69991;SDS011;57332;51.320;-0.580;2023-04-25T14:33:33;4.60;;;1.80;;
69991;SDS011;57332;51.320;-0.580;2023-04-25T14:36:00;5.00;;;2.00;;
69991;SDS011;57332;51.320;-0.580;2023-04-25T14:38:27;3.22;;;2.00;;
69991;SDS011;57332;51.320;-0.580;2023-04-25T14:40:54;4.20;;;1.77;;